Time;durP1;ratioP1;P1;durP2;ratioP2;P2;SDS_P1;SDS_P2;PMS_P1;PMS_P2;Temp;Humidity;BMP_temperature;BMP_pressure;BME280_temperature;BME280_humidity;BME280_pressure;Samples;Min_cycle;Max_cycle;Signal;HPM_P1;HPM_P2
2024/02/16 00:00:12;;;;;;;;;6.00;5.75;;;;;;;;5079583;27;45355;-71
2024/02/16 00:02:37;;;;;;;;;6.25;5.00;;;;;;;;5075326;27;45411;-71
2024/02/16 00:05:05;;;;;;;;;6.00;6.00;;;;;;;;5075015;27;45678;-71
2024/02/16 00:07:30;;;;;;;;;6.00;6.00;;;;;;;;5072988;27;45523;-71
2024/02/16 00:09:55;;;;;;;;;7.50;5.50;;;;;;;;5073126;27;45499;-71
2024/02/16 00:12:21;;;;;;;;;7.00;6.00;;;;;;;;5080296;27;45512;-71
2024/02/16 00:14:46;;;;;;;;;6.25;5.25;;;;;;;;5078532;27;46606;-71
2024/02/16 00:17:11;;;;;;;;;5.67;4.67;;;;;;;;5078100;27;45625;-71
2024/02/16 00:19:37;;;;;;;;;8.00;6.25;;;;;;;;5078882;27;45375;-72
2024/02/16 00:22:02;;;;;;;;;5.00;5.00;;;;;;;;5074643;27;45511;-72
2024/02/16 00:24:27;;;;;;;;;4.25;4.25;;;;;;;;5079884;27;46284;-72
2024/02/16 00:26:52;;;;;;;;;7.67;5.67;;;;;;;;5080265;27;45335;-72
2024/02/16 00:29:19;;;;;;;;;5.75;5.75;;;;;;;;5079996;27;45276;-71
2024/02/16 00:31:44;;;;;;;;;7.00;6.00;;;;;;;;5079023;27;45472;-71
2024/02/16 00:34:10;;;;;;;;;9.67;7.00;;;;;;;;5073035;27;45527;-71
2024/02/16 00:36:35;;;;;;;;;5.75;5.75;;;;;;;;5071926;27;45819;-71
2024/02/16 00:39:00;;;;;;;;;5.00;5.00;;;;;;;;5079905;27;45326;-71
2024/02/16 00:41:26;;;;;;;;;5.00;5.00;;;;;;;;5078595;27;45544;-71
2024/02/16 00:43:54;;;;;;;;;5.75;5.75;;;;;;;;5075358;27;45523;-71
2024/02/16 00:46:19;;;;;;;;;6.25;6.25;;;;;;;;5077879;27;45847;-71
2024/02/16 00:48:46;;;;;;;;;5.75;5.75;;;;;;;;5078554;27;45419;-71
2024/02/16 00:51:11;;;;;;;;;4.75;4.75;;;;;;;;5077769;27;45693;-71
2024/02/16 00:53:37;;;;;;;;;5.25;4.75;;;;;;;;5080830;28;45637;-72
2024/02/16 00:56:02;;;;;;;;;6.25;5.00;;;;;;;;5077989;27;45440;-72
2024/02/16 00:58:28;;;;;;;;;6.00;6.00;;;;;;;;5064777;27;45792;-72
2024/02/16 01:00:53;;;;;;;;;4.67;4.33;;;;;;;;5067822;27;45574;-71
2024/02/16 01:03:18;;;;;;;;;6.00;4.67;;;;;;;;5072156;27;45617;-71
2024/02/16 01:05:43;;;;;;;;;6.00;6.00;;;;;;;;5077671;27;45356;-71
2024/02/16 01:08:08;;;;;;;;;5.00;5.00;;;;;;;;5077523;27;45528;-72
2024/02/16 01:10:33;;;;;;;;;4.00;4.00;;;;;;;;5079507;27;45422;-72
2024/02/16 01:12:59;;;;;;;;;4.00;4.00;;;;;;;;5077840;27;45722;-71
2024/02/16 01:15:24;;;;;;;;;5.00;5.00;;;;;;;;5080167;27;45372;-71
2024/02/16 01:17:49;;;;;;;;;5.67;4.67;;;;;;;;5078820;27;45350;-71
2024/02/16 01:20:15;;;;;;;;;5.25;4.00;;;;;;;;5079003;27;45368;-71
2024/02/16 01:22:40;;;;;;;;;5.25;5.25;;;;;;;;5079081;27;45502;-71
2024/02/16 01:25:06;;;;;;;;;5.25;5.25;;;;;;;;5078648;27;45513;-72
2024/02/16 01:27:31;;;;;;;;;7.75;5.00;;;;;;;;5078921;27;45488;-72
2024/02/16 01:29:57;;;;;;;;;5.50;4.50;;;;;;;;5078832;27;45433;-72
2024/02/16 01:32:22;;;;;;;;;4.00;4.00;;;;;;;;5078321;27;45381;-72
2024/02/16 01:34:49;;;;;;;;;5.67;4.00;;;;;;;;5077077;27;45574;-72
2024/02/16 01:37:14;;;;;;;;;3.75;3.75;;;;;;;;5078477;27;45496;-71
2024/02/16 01:39:39;;;;;;;;;5.00;3.00;;;;;;;;5078967;27;45864;-71
2024/02/16 01:42:05;;;;;;;;;5.00;4.00;;;;;;;;5078274;27;45410;-71
2024/02/16 01:44:30;;;;;;;;;5.00;5.00;;;;;;;;5072630;27;45369;-71
2024/02/16 01:46:55;;;;;;;;;7.33;4.00;;;;;;;;5078779;27;45346;-71
2024/02/16 01:49:21;;;;;;;;;7.00;6.00;;;;;;;;5076855;27;45685;-71
2024/02/16 01:51:46;;;;;;;;;7.75;6.00;;;;;;;;5078958;27;46046;-71
2024/02/16 01:54:12;;;;;;;;;4.75;4.75;;;;;;;;5077957;27;45358;-71
2024/02/16 01:56:37;;;;;;;;;6.00;6.00;;;;;;;;5077987;27;45428;-71
2024/02/16 01:59:02;;;;;;;;;5.25;5.25;;;;;;;;5078472;27;45377;-71
2024/02/16 02:01:27;;;;;;;;;6.00;5.00;;;;;;;;5077518;27;46310;-71
2024/02/16 02:03:53;;;;;;;;;3.33;3.33;;;;;;;;5077813;27;45584;-72
2024/02/16 02:06:18;;;;;;;;;5.00;5.00;;;;;;;;5071693;27;45435;-72
2024/02/16 02:08:43;;;;;;;;;4.00;3.00;;;;;;;;5074631;27;45655;-71
2024/02/16 02:11:09;;;;;;;;;2.67;2.67;;;;;;;;5077608;27;45405;-71
2024/02/16 02:13:34;;;;;;;;;5.75;4.50;;;;;;;;5077406;27;46135;-72
2024/02/16 02:16:00;;;;;;;;;2.67;2.67;;;;;;;;5077207;27;45380;-71
2024/02/16 02:18:25;;;;;;;;;7.75;7.00;;;;;;;;5075644;27;45443;-71
2024/02/16 02:20:50;;;;;;;;;5.67;5.67;;;;;;;;5073811;27;46359;-71
2024/02/16 02:23:15;;;;;;;;;6.00;4.67;;;;;;;;5077688;27;47021;-71
2024/02/16 02:25:41;;;;;;;;;5.67;5.33;;;;;;;;5077745;27;45411;-71
2024/02/16 02:28:06;;;;;;;;;5.25;5.25;;;;;;;;5076141;27;45340;-71
2024/02/16 02:30:31;;;;;;;;;8.00;5.33;;;;;;;;5074993;27;46729;-71
2024/02/16 02:32:57;;;;;;;;;7.00;7.00;;;;;;;;5075942;27;45558;-71
2024/02/16 02:35:22;;;;;;;;;8.00;6.00;;;;;;;;5075738;27;45698;-71
2024/02/16 02:37:48;;;;;;;;;6.00;5.00;;;;;;;;5077376;27;45496;-71
2024/02/16 02:40:13;;;;;;;;;6.25;5.25;;;;;;;;5077496;27;45356;-71
2024/02/16 02:42:38;;;;;;;;;6.50;6.00;;;;;;;;5074213;27;45360;-72
2024/02/16 02:45:04;;;;;;;;;6.00;5.00;;;;;;;;5077813;27;45686;-72
2024/02/16 02:47:29;;;;;;;;;6.00;6.00;;;;;;;;5076038;27;46000;-72
2024/02/16 02:49:54;;;;;;;;;5.67;5.33;;;;;;;;5076801;27;45902;-72
2024/02/16 02:52:20;;;;;;;;;4.33;4.33;;;;;;;;5077453;27;45326;-72
2024/02/16 02:54:46;;;;;;;;;4.25;4.25;;;;;;;;5078101;27;45622;-72
2024/02/16 02:57:11;;;;;;;;;6.00;6.00;;;;;;;;5076416;27;45379;-72
2024/02/16 02:59:36;;;;;;;;;5.25;5.25;;;;;;;;5076889;27;46994;-72
2024/02/16 03:02:02;;;;;;;;;5.67;5.67;;;;;;;;5075014;27;45601;-71
2024/02/16 03:04:27;;;;;;;;;7.00;6.00;;;;;;;;5073790;27;45612;-71
2024/02/16 03:06:52;;;;;;;;;8.33;6.33;;;;;;;;5071488;27;45461;-71
2024/02/16 03:09:17;;;;;;;;;7.50;5.50;;;;;;;;5076500;27;45415;-71
2024/02/16 03:11:42;;;;;;;;;7.00;5.33;;;;;;;;5076479;27;45964;-72
2024/02/16 03:14:08;;;;;;;;;4.67;4.67;;;;;;;;5073986;27;46030;-72
2024/02/16 03:16:33;;;;;;;;;8.00;6.00;;;;;;;;5068464;28;45386;-71
2024/02/16 03:18:58;;;;;;;;;6.00;5.00;;;;;;;;5077186;27;45650;-71
2024/02/16 03:21:24;;;;;;;;;6.25;6.25;;;;;;;;5078323;27;45662;-71
2024/02/16 03:23:49;;;;;;;;;4.25;4.25;;;;;;;;5078733;27;45473;-71
2024/02/16 03:26:18;;;;;;;;;5.00;4.00;;;;;;;;5079437;27;45406;-71
2024/02/16 03:28:47;;;;;;;;;4.25;4.00;;;;;;;;5074211;27;46403;-72
2024/02/16 03:31:22;;;;;;;;;4.75;4.75;;;;;;;;5081184;27;45376;-72
2024/02/16 03:33:48;;;;;;;;;7.00;6.00;;;;;;;;5075125;27;45752;-71
2024/02/16 03:36:14;;;;;;;;;5.00;4.00;;;;;;;;5076705;27;45389;-71
2024/02/16 03:38:43;;;;;;;;;6.25;5.50;;;;;;;;5076809;27;45496;-71
2024/02/16 03:41:11;;;;;;;;;5.25;4.50;;;;;;;;5073372;27;45366;-71
2024/02/16 03:43:36;;;;;;;;;6.00;6.00;;;;;;;;5075645;27;45462;-71
2024/02/16 03:46:01;;;;;;;;;5.33;4.00;;;;;;;;5080778;27;45338;-69
2024/02/16 03:48:26;;;;;;;;;5.75;5.75;;;;;;;;5080505;27;46217;-62
2024/02/16 03:50:52;;;;;;;;;3.33;3.33;;;;;;;;5080008;27;45297;-62
2024/02/16 03:53:17;;;;;;;;;5.00;5.00;;;;;;;;5085505;27;45914;-62
2024/02/16 03:55:43;;;;;;;;;6.00;4.67;;;;;;;;5085982;27;45531;-62
2024/02/16 03:58:08;;;;;;;;;6.00;5.00;;;;;;;;5075191;27;45548;-63
2024/02/16 04:00:34;;;;;;;;;6.67;4.67;;;;;;;;5081506;27;45381;-62
2024/02/16 04:02:59;;;;;;;;;5.50;5.00;;;;;;;;5080820;27;45564;-62
2024/02/16 04:05:30;;;;;;;;;3.00;3.00;;;;;;;;5073633;27;45577;-62
2024/02/16 04:07:55;;;;;;;;;7.25;5.00;;;;;;;;5083814;27;45615;-63
2024/02/16 04:10:21;;;;;;;;;5.00;4.00;;;;;;;;5076278;27;45458;-63
2024/02/16 04:12:46;;;;;;;;;5.00;5.00;;;;;;;;5069536;27;45422;-63
2024/02/16 04:15:11;;;;;;;;;6.33;6.33;;;;;;;;5079816;27;45728;-62
2024/02/16 04:17:36;;;;;;;;;5.25;4.50;;;;;;;;5078763;27;45393;-62
2024/02/16 04:20:02;;;;;;;;;5.67;5.67;;;;;;;;5080707;27;45460;-61
2024/02/16 04:22:27;;;;;;;;;3.75;3.75;;;;;;;;5080365;27;45459;-72
2024/02/16 04:24:52;;;;;;;;;4.00;4.00;;;;;;;;5072971;27;45611;-71
2024/02/16 04:27:17;;;;;;;;;4.00;3.67;;;;;;;;5080282;27;46797;-71
2024/02/16 04:29:42;;;;;;;;;7.33;6.00;;;;;;;;5080799;27;45480;-71
2024/02/16 04:32:08;;;;;;;;;6.00;5.67;;;;;;;;5080991;27;45455;-71
2024/02/16 04:34:33;;;;;;;;;4.00;4.00;;;;;;;;5078968;27;45641;-71
2024/02/16 04:36:59;;;;;;;;;6.00;5.33;;;;;;;;5080448;27;46214;-71
2024/02/16 04:39:24;;;;;;;;;6.00;6.00;;;;;;;;5079201;27;45393;-71
2024/02/16 04:41:51;;;;;;;;;6.67;5.00;;;;;;;;5080019;27;45492;-71
2024/02/16 04:44:17;;;;;;;;;5.25;5.00;;;;;;;;5080179;27;45546;-71
2024/02/16 04:46:42;;;;;;;;;5.00;5.00;;;;;;;;5077783;27;47067;-71
2024/02/16 04:49:07;;;;;;;;;4.00;4.00;;;;;;;;5078965;27;45500;-71
2024/02/16 04:51:33;;;;;;;;;6.00;6.00;;;;;;;;5080782;27;45862;-71
2024/02/16 04:53:58;;;;;;;;;6.00;5.00;;;;;;;;5080762;27;45411;-71
2024/02/16 04:56:23;;;;;;;;;5.75;5.00;;;;;;;;5079459;27;45337;-71
2024/02/16 04:58:48;;;;;;;;;5.00;5.00;;;;;;;;5080537;27;45424;-71
2024/02/16 05:01:13;;;;;;;;;8.00;6.00;;;;;;;;5080350;27;45341;-71
2024/02/16 05:03:41;;;;;;;;;6.00;4.33;;;;;;;;5080244;27;45410;-71
2024/02/16 05:06:06;;;;;;;;;6.00;6.00;;;;;;;;5067317;28;46241;-71
2024/02/16 05:08:31;;;;;;;;;9.67;7.00;;;;;;;;5079060;27;45610;-71
2024/02/16 05:10:56;;;;;;;;;6.00;4.00;;;;;;;;5073876;27;45361;-71
2024/02/16 05:13:21;;;;;;;;;5.67;5.00;;;;;;;;5080175;28;45276;-71
2024/02/16 05:15:48;;;;;;;;;5.00;5.00;;;;;;;;5079701;27;45422;-71
2024/02/16 05:18:13;;;;;;;;;6.00;6.00;;;;;;;;5079906;27;45401;-71
2024/02/16 05:20:39;;;;;;;;;7.75;5.00;;;;;;;;5079985;27;45414;-71
2024/02/16 05:23:04;;;;;;;;;7.00;6.00;;;;;;;;5080106;27;45595;-71
2024/02/16 05:25:30;;;;;;;;;6.00;5.00;;;;;;;;5079994;27;46145;-71
2024/02/16 05:27:55;;;;;;;;;6.33;6.00;;;;;;;;5078215;27;45536;-71
2024/02/16 05:30:20;;;;;;;;;6.33;5.67;;;;;;;;5080516;27;45480;-71
2024/02/16 05:32:45;;;;;;;;;9.25;7.25;;;;;;;;5070948;28;45376;-71
2024/02/16 05:35:17;;;;;;;;;6.00;4.00;;;;;;;;5078906;27;45562;-71
2024/02/16 05:37:48;;;;;;;;;5.50;5.50;;;;;;;;5072699;27;45427;-71
2024/02/16 05:40:28;;;;;;;;;5.25;5.25;;;;;;;;5075967;27;45479;-71
2024/02/16 05:42:54;;;;;;;;;6.75;4.75;;;;;;;;5079348;27;45590;-71
2024/02/16 05:45:21;;;;;;;;;7.00;5.00;;;;;;;;5079566;27;45396;-71
2024/02/16 05:47:46;;;;;;;;;8.50;6.00;;;;;;;;5076994;27;45554;-71
2024/02/16 05:50:12;;;;;;;;;6.50;6.50;;;;;;;;5079954;27;45529;-71
2024/02/16 05:52:40;;;;;;;;;7.50;5.75;;;;;;;;5078626;27;45373;-71
2024/02/16 05:55:06;;;;;;;;;7.00;7.00;;;;;;;;5079254;27;45454;-71
2024/02/16 05:57:31;;;;;;;;;6.25;6.00;;;;;;;;5079054;27;45406;-71
2024/02/16 05:59:57;;;;;;;;;5.67;5.33;;;;;;;;5079402;27;45299;-71
2024/02/16 06:02:25;;;;;;;;;6.75;5.00;;;;;;;;5079264;27;45508;-71
2024/02/16 06:04:51;;;;;;;;;5.00;5.00;;;;;;;;5073882;27;45392;-71
2024/02/16 06:07:16;;;;;;;;;5.00;5.00;;;;;;;;5076858;27;45398;-71
2024/02/16 06:09:41;;;;;;;;;8.00;6.00;;;;;;;;5081059;27;45339;-71
2024/02/16 06:12:07;;;;;;;;;8.67;6.67;;;;;;;;5077396;27;45485;-71
2024/02/16 06:14:32;;;;;;;;;7.00;7.00;;;;;;;;5078634;27;45421;-71
2024/02/16 06:16:58;;;;;;;;;8.00;6.00;;;;;;;;5078218;27;45396;-71
2024/02/16 06:19:23;;;;;;;;;6.25;6.00;;;;;;;;5077738;27;45492;-71
2024/02/16 06:21:48;;;;;;;;;6.00;5.00;;;;;;;;5079045;27;45407;-71
2024/02/16 06:24:13;;;;;;;;;6.00;5.00;;;;;;;;5079019;27;45417;-71
2024/02/16 06:26:38;;;;;;;;;7.00;6.00;;;;;;;;5077094;27;45417;-71
2024/02/16 06:29:04;;;;;;;;;7.00;7.00;;;;;;;;5073695;27;45683;-71
2024/02/16 06:31:29;;;;;;;;;6.00;4.50;;;;;;;;5079057;28;45317;-71
2024/02/16 06:33:54;;;;;;;;;9.67;5.67;;;;;;;;5078443;27;45495;-71
2024/02/16 06:36:19;;;;;;;;;6.00;6.00;;;;;;;;5076195;27;45810;-71
2024/02/16 06:38:44;;;;;;;;;8.33;4.67;;;;;;;;5080477;27;45618;-71
2024/02/16 06:41:10;;;;;;;;;5.33;5.33;;;;;;;;5077768;27;45502;-73
2024/02/16 06:43:35;;;;;;;;;9.50;7.50;;;;;;;;5078137;27;45376;-65
2024/02/16 06:46:00;;;;;;;;;5.67;4.67;;;;;;;;5073966;27;45433;-65
2024/02/16 06:48:25;;;;;;;;;5.00;5.00;;;;;;;;5087630;27;45518;-65
2024/02/16 06:50:51;;;;;;;;;7.00;6.00;;;;;;;;5078355;27;45256;-65
2024/02/16 06:53:16;;;;;;;;;5.67;5.67;;;;;;;;5093608;27;45805;-65
2024/02/16 06:55:41;;;;;;;;;7.67;6.33;;;;;;;;5077459;27;45489;-65
2024/02/16 06:58:06;;;;;;;;;4.67;4.67;;;;;;;;5079261;27;45266;-65
2024/02/16 07:00:31;;;;;;;;;5.67;4.33;;;;;;;;5065635;27;45443;-64
2024/02/16 07:02:56;;;;;;;;;4.33;4.33;;;;;;;;5072788;27;46281;-64
2024/02/16 07:05:22;;;;;;;;;6.67;5.67;;;;;;;;5077954;27;45369;-64
2024/02/16 07:07:47;;;;;;;;;3.67;2.00;;;;;;;;5071356;27;45353;-64
2024/02/16 07:10:13;;;;;;;;;7.00;4.00;;;;;;;;5074295;28;45610;-64
2024/02/16 07:12:38;;;;;;;;;6.50;4.50;;;;;;;;5081576;27;45239;-64
2024/02/16 07:15:04;;;;;;;;;4.00;3.00;;;;;;;;5074178;27;45444;-65
2024/02/16 07:17:29;;;;;;;;;5.00;4.00;;;;;;;;5074173;27;45645;-65
2024/02/16 07:19:54;;;;;;;;;3.67;3.67;;;;;;;;5074578;27;45800;-65
2024/02/16 07:22:20;;;;;;;;;7.00;5.00;;;;;;;;5090344;27;46448;-65
2024/02/16 07:24:45;;;;;;;;;5.00;3.00;;;;;;;;5068966;27;47129;-65
2024/02/16 07:27:10;;;;;;;;;5.00;4.00;;;;;;;;5072586;27;45561;-65
2024/02/16 07:29:38;;;;;;;;;5.50;2.75;;;;;;;;5078559;27;45566;-65
2024/02/16 07:32:03;;;;;;;;;3.75;3.00;;;;;;;;5072316;27;46431;-65
2024/02/16 07:34:28;;;;;;;;;5.00;5.00;;;;;;;;5067800;27;45464;-65
2024/02/16 07:36:54;;;;;;;;;5.75;4.75;;;;;;;;5076289;27;45562;-65
2024/02/16 07:39:22;;;;;;;;;5.75;4.50;;;;;;;;5072681;27;45441;-65
2024/02/16 07:41:47;;;;;;;;;4.00;4.00;;;;;;;;5061901;27;46170;-70
2024/02/16 07:44:12;;;;;;;;;4.00;4.00;;;;;;;;5077146;28;45362;-70
2024/02/16 07:46:41;;;;;;;;;3.00;3.00;;;;;;;;5068745;27;45476;-70
2024/02/16 07:49:06;;;;;;;;;2.50;2.00;;;;;;;;5072285;27;45418;-70
2024/02/16 07:51:31;;;;;;;;;3.00;3.00;;;;;;;;5077357;27;46376;-70
2024/02/16 07:53:56;;;;;;;;;3.67;3.00;;;;;;;;5088061;27;45406;-70
2024/02/16 07:56:21;;;;;;;;;4.33;2.00;;;;;;;;5091485;27;45543;-70
2024/02/16 07:58:47;;;;;;;;;6.00;3.33;;;;;;;;5076211;27;45504;-70
2024/02/16 08:01:15;;;;;;;;;3.00;3.00;;;;;;;;5066739;27;45526;-70
2024/02/16 08:03:40;;;;;;;;;3.00;3.00;;;;;;;;5075251;27;45437;-70
2024/02/16 08:06:05;;;;;;;;;3.75;3.00;;;;;;;;5071618;27;46098;-71
2024/02/16 08:08:31;;;;;;;;;3.00;3.00;;;;;;;;5075862;27;45674;-70
2024/02/16 08:10:56;;;;;;;;;3.00;2.00;;;;;;;;5076905;27;46626;-70
2024/02/16 08:13:21;;;;;;;;;3.00;2.00;;;;;;;;5075443;27;45774;-70
2024/02/16 08:15:47;;;;;;;;;1.33;1.33;;;;;;;;5080219;27;45478;-71
2024/02/16 08:18:12;;;;;;;;;2.75;2.00;;;;;;;;5089252;27;45587;-70
2024/02/16 08:20:38;;;;;;;;;2.25;1.75;;;;;;;;5084839;27;45459;-73
2024/02/16 08:23:04;;;;;;;;;2.75;1.50;;;;;;;;5078578;27;46177;-76
2024/02/16 08:25:30;;;;;;;;;1.00;0.00;;;;;;;;5078265;27;45693;-72
2024/02/16 08:27:55;;;;;;;;;1.00;1.00;;;;;;;;5081088;27;46699;-73
2024/02/16 08:30:20;;;;;;;;;2.00;2.00;;;;;;;;5078305;27;45419;-73
2024/02/16 08:32:45;;;;;;;;;2.00;2.00;;;;;;;;5082468;27;45445;-73
2024/02/16 08:35:13;;;;;;;;;1.67;1.67;;;;;;;;5079234;27;45412;-73
2024/02/16 08:37:39;;;;;;;;;3.50;2.75;;;;;;;;5079588;27;45354;-73
2024/02/16 08:40:04;;;;;;;;;1.00;1.00;;;;;;;;5077338;27;45461;-73
2024/02/16 08:42:29;;;;;;;;;3.00;1.00;;;;;;;;5071337;28;45787;-73
2024/02/16 08:44:58;;;;;;;;;0.00;0.00;;;;;;;;5078256;27;45495;-72
2024/02/16 08:47:23;;;;;;;;;2.00;0.75;;;;;;;;5080314;27;45314;-72
2024/02/16 08:49:48;;;;;;;;;0.67;0.00;;;;;;;;5079257;27;46300;-72
2024/02/16 08:52:14;;;;;;;;;0.33;0.00;;;;;;;;5078434;27;45562;-71
2024/02/16 08:54:39;;;;;;;;;1.75;1.00;;;;;;;;5072958;28;45480;-72
2024/02/16 08:57:05;;;;;;;;;0.50;0.50;;;;;;;;5078180;27;45606;-72
2024/02/16 08:59:30;;;;;;;;;1.00;1.00;;;;;;;;5072986;27;45567;-68
2024/02/16 09:01:56;;;;;;;;;1.00;1.00;;;;;;;;5080158;27;45557;-74
2024/02/16 09:04:21;;;;;;;;;2.75;1.50;;;;;;;;5077532;27;45397;-76
2024/02/16 09:06:47;;;;;;;;;1.00;1.00;;;;;;;;5080153;27;45706;-75
2024/02/16 09:09:12;;;;;;;;;1.75;1.75;;;;;;;;5073235;27;46270;-76
2024/02/16 09:11:37;;;;;;;;;2.67;1.00;;;;;;;;5078309;27;45417;-77
2024/02/16 09:14:03;;;;;;;;;3.00;1.00;;;;;;;;5078115;27;45673;-77
2024/02/16 09:16:28;;;;;;;;;1.50;1.50;;;;;;;;5084303;27;45829;-77
2024/02/16 09:18:53;;;;;;;;;1.00;1.00;;;;;;;;5073685;27;46372;-77
2024/02/16 09:21:19;;;;;;;;;1.00;1.00;;;;;;;;5070723;27;45531;-76
2024/02/16 09:23:44;;;;;;;;;0.75;0.50;;;;;;;;5077720;27;45619;-76
2024/02/16 09:26:10;;;;;;;;;1.00;1.00;;;;;;;;5078499;27;45646;-76
2024/02/16 09:28:38;;;;;;;;;1.00;1.00;;;;;;;;5080656;27;45477;-76
2024/02/16 09:31:03;;;;;;;;;0.25;0.25;;;;;;;;5089146;27;45517;-76
2024/02/16 09:33:29;;;;;;;;;2.00;2.00;;;;;;;;5080750;27;45479;-76
2024/02/16 09:35:54;;;;;;;;;2.00;1.00;;;;;;;;5081831;27;45744;-76
2024/02/16 09:38:20;;;;;;;;;1.00;1.00;;;;;;;;5078706;27;45435;-76
2024/02/16 09:40:45;;;;;;;;;0.75;0.75;;;;;;;;5067119;27;45388;-76
2024/02/16 09:43:10;;;;;;;;;0.00;0.00;;;;;;;;5074000;27;45329;-76
2024/02/16 09:45:36;;;;;;;;;1.50;1.50;;;;;;;;5069065;27;45382;-76
2024/02/16 09:48:02;;;;;;;;;2.00;2.00;;;;;;;;5082100;27;45676;-76
2024/02/16 09:50:28;;;;;;;;;0.75;0.75;;;;;;;;5079588;27;45492;-76
2024/02/16 09:52:56;;;;;;;;;1.00;1.00;;;;;;;;5076035;27;45457;-76
2024/02/16 09:55:22;;;;;;;;;1.00;1.00;;;;;;;;5079441;27;45425;-75
2024/02/16 09:57:48;;;;;;;;;1.25;0.75;;;;;;;;5078253;27;45925;-76
2024/02/16 10:00:13;;;;;;;;;0.50;0.50;;;;;;;;5087925;27;45306;-76
2024/02/16 10:02:41;;;;;;;;;1.00;1.00;;;;;;;;5079430;27;45347;-76
2024/02/16 10:05:19;;;;;;;;;1.00;1.00;;;;;;;;5082833;27;45832;-76
2024/02/16 10:07:45;;;;;;;;;1.00;1.00;;;;;;;;5067278;27;45469;-76
2024/02/16 10:10:26;;;;;;;;;1.00;1.00;;;;;;;;5073679;27;45322;-76
2024/02/16 10:13:01;;;;;;;;;3.00;2.00;;;;;;;;5077982;27;45433;-76
2024/02/16 10:15:26;;;;;;;;;2.00;2.00;;;;;;;;5079488;27;45664;-77
2024/02/16 10:17:59;;;;;;;;;3.50;0.75;;;;;;;;5091458;27;45508;-77
2024/02/16 10:20:25;;;;;;;;;1.00;0.00;;;;;;;;5078545;27;45839;-75
2024/02/16 10:22:50;;;;;;;;;2.00;2.00;;;;;;;;5065866;27;45420;-76
2024/02/16 10:25:15;;;;;;;;;2.00;2.00;;;;;;;;5078289;27;45522;-75
2024/02/16 10:27:41;;;;;;;;;1.67;1.00;;;;;;;;5084591;27;45583;-76
2024/02/16 10:30:09;;;;;;;;;4.00;2.00;;;;;;;;5078140;27;45640;-74
2024/02/16 10:32:36;;;;;;;;;2.75;2.75;;;;;;;;5076463;27;45443;-74
2024/02/16 10:35:02;;;;;;;;;2.00;2.00;;;;;;;;5077660;27;45525;-74
2024/02/16 10:37:28;;;;;;;;;3.75;3.75;;;;;;;;5065112;27;45346;-74
2024/02/16 10:39:54;;;;;;;;;3.75;3.00;;;;;;;;5075320;27;45260;-76
2024/02/16 10:42:20;;;;;;;;;3.50;3.50;;;;;;;;5080577;27;45524;-70
2024/02/16 10:44:46;;;;;;;;;4.75;4.75;;;;;;;;5086651;27;45450;-74
2024/02/16 10:47:11;;;;;;;;;5.25;5.25;;;;;;;;5081046;27;46131;-76
2024/02/16 10:49:36;;;;;;;;;6.00;6.00;;;;;;;;5082582;27;45447;-75
2024/02/16 10:52:05;;;;;;;;;7.00;5.75;;;;;;;;5080781;27;45489;-76
2024/02/16 10:54:32;;;;;;;;;8.75;7.00;;;;;;;;5077192;27;45566;-75
2024/02/16 10:56:57;;;;;;;;;7.75;7.25;;;;;;;;5076649;27;46438;-75
2024/02/16 10:59:22;;;;;;;;;6.25;5.00;;;;;;;;5071918;27;45656;-75
2024/02/16 11:01:47;;;;;;;;;6.25;6.00;;;;;;;;5077533;27;45399;-75
2024/02/16 11:04:16;;;;;;;;;10.33;10.00;;;;;;;;5077420;27;45353;-75
2024/02/16 11:06:48;;;;;;;;;9.00;9.00;;;;;;;;5079967;27;45616;-75
2024/02/16 11:09:25;;;;;;;;;9.00;8.00;;;;;;;;5078176;27;45510;-75
2024/02/16 11:11:54;;;;;;;;;13.50;12.50;;;;;;;;5075359;27;45515;-75
2024/02/16 11:14:20;;;;;;;;;15.75;12.25;;;;;;;;5081375;27;45302;-74
2024/02/16 11:16:46;;;;;;;;;9.50;9.50;;;;;;;;5090712;27;46189;-75
2024/02/16 11:19:11;;;;;;;;;17.75;15.25;;;;;;;;5077179;27;45313;-75
2024/02/16 11:21:36;;;;;;;;;16.50;13.00;;;;;;;;5076396;27;46134;-75
2024/02/16 11:24:08;;;;;;;;;15.33;14.33;;;;;;;;5077787;28;46453;-75
2024/02/16 11:26:41;;;;;;;;;17.50;17.50;;;;;;;;5078121;27;46147;-75
2024/02/16 11:29:10;;;;;;;;;11.00;11.00;;;;;;;;5079855;27;45614;-75
2024/02/16 11:31:35;;;;;;;;;15.50;12.00;;;;;;;;5070870;28;45551;-75
2024/02/16 11:34:00;;;;;;;;;16.33;14.67;;;;;;;;5067823;27;45428;-76
2024/02/16 11:36:25;;;;;;;;;14.67;14.67;;;;;;;;5076954;27;45503;-75
2024/02/16 11:38:51;;;;;;;;;16.00;16.00;;;;;;;;5073699;27;45621;-75
2024/02/16 11:41:16;;;;;;;;;13.75;13.25;;;;;;;;5069527;27;45260;-75
2024/02/16 11:43:42;;;;;;;;;15.67;15.67;;;;;;;;5070791;27;45240;-76
2024/02/16 11:46:14;;;;;;;;;16.00;16.00;;;;;;;;5073489;27;45406;-75
2024/02/16 11:48:39;;;;;;;;;14.00;14.00;;;;;;;;5079242;27;45436;-75
2024/02/16 11:51:04;;;;;;;;;11.00;11.00;;;;;;;;5080351;27;45396;-76
2024/02/16 11:53:30;;;;;;;;;11.25;11.25;;;;;;;;5081145;27;45607;-75
2024/02/16 11:55:55;;;;;;;;;14.75;13.25;;;;;;;;5080556;27;45412;-75
2024/02/16 11:58:22;;;;;;;;;11.25;11.25;;;;;;;;5079422;27;46025;-75
2024/02/16 12:00:47;;;;;;;;;10.75;10.75;;;;;;;;5082033;28;45360;-75
2024/02/16 12:03:20;;;;;;;;;11.25;9.75;;;;;;;;5079710;27;45644;-75
2024/02/16 12:05:52;;;;;;;;;11.25;11.25;;;;;;;;5077428;27;46168;-75
2024/02/16 12:08:18;;;;;;;;;15.00;12.75;;;;;;;;5085794;27;45527;-76
2024/02/16 12:10:43;;;;;;;;;13.00;12.25;;;;;;;;5077921;27;45507;-75
2024/02/16 12:13:09;;;;;;;;;9.25;9.25;;;;;;;;5076787;27;45504;-75
2024/02/16 12:15:34;;;;;;;;;10.00;10.00;;;;;;;;5085019;27;45349;-75
2024/02/16 12:18:01;;;;;;;;;12.67;12.67;;;;;;;;5078526;27;45319;-76
2024/02/16 12:20:26;;;;;;;;;10.75;10.75;;;;;;;;5079548;27;45301;-76
2024/02/16 12:22:51;;;;;;;;;14.00;14.00;;;;;;;;5080645;27;45230;-76
2024/02/16 12:25:16;;;;;;;;;14.33;14.33;;;;;;;;5080285;27;45324;-75
2024/02/16 12:27:41;;;;;;;;;14.50;13.25;;;;;;;;5080114;27;45344;-76
2024/02/16 12:30:07;;;;;;;;;12.67;12.33;;;;;;;;5084642;27;45337;-76
2024/02/16 12:32:32;;;;;;;;;9.50;9.25;;;;;;;;5084960;27;45294;-76
2024/02/16 12:34:57;;;;;;;;;10.00;10.00;;;;;;;;5083443;27;45445;-75
2024/02/16 12:37:23;;;;;;;;;10.00;10.00;;;;;;;;5076993;27;45549;-74
2024/02/16 12:39:48;;;;;;;;;9.00;9.00;;;;;;;;5081271;27;46158;-73
2024/02/16 12:42:14;;;;;;;;;11.00;10.67;;;;;;;;5078619;27;45231;-74
2024/02/16 12:44:39;;;;;;;;;8.25;8.25;;;;;;;;5069119;27;45541;-73
2024/02/16 12:47:05;;;;;;;;;9.67;9.00;;;;;;;;5079228;27;45437;-73
2024/02/16 12:49:30;;;;;;;;;10.00;10.00;;;;;;;;5087975;27;45396;-74
2024/02/16 12:51:56;;;;;;;;;10.00;10.00;;;;;;;;5096211;27;45334;-73
2024/02/16 12:54:22;;;;;;;;;8.67;8.00;;;;;;;;5081350;27;45297;-73
2024/02/16 12:56:48;;;;;;;;;9.00;8.00;;;;;;;;5071763;27;45734;-73
2024/02/16 12:59:13;;;;;;;;;11.00;10.50;;;;;;;;5082305;27;45482;-73
2024/02/16 13:01:38;;;;;;;;;9.75;9.75;;;;;;;;5080762;27;45369;-73
2024/02/16 13:04:05;;;;;;;;;8.50;8.25;;;;;;;;5078772;27;45515;-73
2024/02/16 13:06:30;;;;;;;;;9.25;8.25;;;;;;;;5078913;27;45510;-74
2024/02/16 13:08:55;;;;;;;;;12.00;10.00;;;;;;;;5093727;27;45431;-73
2024/02/16 13:11:21;;;;;;;;;11.33;10.33;;;;;;;;5078962;27;45737;-73
2024/02/16 13:13:46;;;;;;;;;10.33;10.00;;;;;;;;5089759;27;46297;-73
2024/02/16 13:16:11;;;;;;;;;11.67;9.33;;;;;;;;5078039;27;45635;-74
2024/02/16 13:18:36;;;;;;;;;10.00;10.00;;;;;;;;5081369;27;45818;-74
2024/02/16 13:21:01;;;;;;;;;14.00;13.00;;;;;;;;5083115;27;45708;-74
2024/02/16 13:23:28;;;;;;;;;12.50;12.00;;;;;;;;5084359;27;45479;-73
2024/02/16 13:25:54;;;;;;;;;11.25;9.50;;;;;;;;5082728;27;45773;-74
2024/02/16 13:28:19;;;;;;;;;11.33;11.00;;;;;;;;5078006;27;45629;-68
2024/02/16 13:30:44;;;;;;;;;12.75;11.00;;;;;;;;5076831;27;45823;-74
2024/02/16 13:33:09;;;;;;;;;13.33;11.00;;;;;;;;5065313;27;45921;-74
2024/02/16 13:35:35;;;;;;;;;12.33;12.33;;;;;;;;5064628;28;45608;-74
2024/02/16 13:38:01;;;;;;;;;13.25;12.25;;;;;;;;5077436;27;45924;-74
2024/02/16 13:40:26;;;;;;;;;17.75;16.50;;;;;;;;5074149;27;45433;-74
2024/02/16 13:42:51;;;;;;;;;13.67;13.67;;;;;;;;5090315;27;46475;-74
2024/02/16 13:45:16;;;;;;;;;13.25;13.00;;;;;;;;5076766;27;45899;-74
2024/02/16 13:47:42;;;;;;;;;12.67;10.33;;;;;;;;5076851;27;45730;-74
2024/02/16 13:50:07;;;;;;;;;11.75;10.50;;;;;;;;5082462;27;45425;-74
2024/02/16 13:52:32;;;;;;;;;10.50;10.00;;;;;;;;5080106;27;46229;-74
2024/02/16 13:54:57;;;;;;;;;12.00;11.33;;;;;;;;5076847;27;45479;-73
2024/02/16 13:57:23;;;;;;;;;11.00;9.00;;;;;;;;5064965;27;45678;-73
2024/02/16 13:59:48;;;;;;;;;10.00;9.33;;;;;;;;5073511;27;45527;-74
2024/02/16 14:02:13;;;;;;;;;11.00;7.00;;;;;;;;5074538;27;45570;-74
2024/02/16 14:04:38;;;;;;;;;12.75;8.75;;;;;;;;5076553;27;45500;-73
2024/02/16 14:07:04;;;;;;;;;11.75;8.50;;;;;;;;5092734;27;45748;-73
2024/02/16 14:09:29;;;;;;;;;8.50;7.00;;;;;;;;5068162;27;45521;-73
2024/02/16 14:11:55;;;;;;;;;7.00;7.00;;;;;;;;5074142;28;46054;-73
2024/02/16 14:14:21;;;;;;;;;10.75;8.25;;;;;;;;5076422;27;45747;-74
2024/02/16 14:16:47;;;;;;;;;10.50;8.00;;;;;;;;5076391;27;45400;-73
2024/02/16 14:19:12;;;;;;;;;8.00;7.00;;;;;;;;5075865;27;45414;-73
2024/02/16 14:21:37;;;;;;;;;6.00;5.67;;;;;;;;5075727;27;45730;-73
2024/02/16 14:24:03;;;;;;;;;8.00;7.00;;;;;;;;5075570;27;45440;-73
2024/02/16 14:26:28;;;;;;;;;10.50;9.00;;;;;;;;5075769;27;45480;-73
2024/02/16 14:28:55;;;;;;;;;11.25;11.25;;;;;;;;5076250;27;45420;-75